Time;durP1;ratioP1;P1;durP2;ratioP2;P2;SDS_P1;SDS_P2;PMS_P1;PMS_P2;Temp;Humidity;BMP_temperature;BMP_pressure;BME280_temperature;BME280_humidity;BME280_pressure;Samples;Min_cycle;Max_cycle;Signal;HPM_P1;HPM_P2
2022/08/24 00:01:13;;;;;;;29.10;26.45;;;18.90;99.90;;;;;;5042909;28;20072;-53
2022/08/24 00:03:40;;;;;;;26.80;24.30;;;18.80;99.90;;;;;;5043042;28;20151;-54
2022/08/24 00:06:08;;;;;;;29.95;27.25;;;18.80;99.90;;;;;;5043146;28;20131;-54
2022/08/24 00:08:34;;;;;;;27.63;25.23;;;18.80;99.90;;;;;;5042972;28;20060;-54
2022/08/24 00:11:00;;;;;;;30.35;27.85;;;18.70;99.90;;;;;;5042714;28;20060;-54
2022/08/24 00:13:26;;;;;;;28.60;26.23;;;18.70;99.90;;;;;;5042793;28;20122;-53
2022/08/24 00:15:53;;;;;;;29.90;27.38;;;18.50;99.90;;;;;;5042864;28;20048;-55
2022/08/24 00:18:20;;;;;;;28.65;26.05;;;18.50;99.90;;;;;;5043094;28;20049;-54
2022/08/24 00:20:47;;;;;;;27.77;25.40;;;18.50;99.90;;;;;;5042163;28;20499;-50
2022/08/24 00:23:13;;;;;;;25.17;22.85;;;18.50;99.90;;;;;;5025293;28;20068;-53
2022/08/24 00:25:40;;;;;;;24.48;22.23;;;18.50;99.90;;;;;;5042676;28;20084;-54
2022/08/24 00:28:06;;;;;;;28.85;26.45;;;18.50;99.90;;;;;;5043436;28;20096;-51
2022/08/24 00:30:33;;;;;;;24.40;22.17;;;18.50;99.90;;;;;;5041483;28;20678;-53
2022/08/24 00:32:59;;;;;;;25.77;23.48;;;18.40;99.90;;;;;;5042027;28;20123;-52
2022/08/24 00:35:25;;;;;;;24.58;22.63;;;18.40;99.90;;;;;;5024528;28;20458;-52
2022/08/24 00:37:52;;;;;;;26.50;23.75;;;18.40;99.90;;;;;;5043421;28;20045;-55
2022/08/24 00:40:32;;;;;;;28.05;25.52;;;18.40;99.90;;;;;;5024020;28;20053;-51
2022/08/24 00:43:03;;;;;;;27.80;25.35;;;18.30;99.90;;;;;;5025454;28;20482;-55
2022/08/24 00:46:09;;;;;;;27.17;24.80;;;18.40;99.90;;;;;;5024091;28;20052;-52
2022/08/24 00:48:42;;;;;;;27.55;24.75;;;18.30;99.90;;;;;;4978689;28;20062;-54
2022/08/24 00:51:21;;;;;;;24.45;22.33;;;18.20;99.90;;;;;;4978795;28;20103;-53
2022/08/24 00:53:52;;;;;;;24.60;22.52;;;18.20;99.90;;;;;;4980346;28;20065;-51
2022/08/24 00:56:29;;;;;;;24.25;21.95;;;18.20;99.90;;;;;;4980192;28;20595;-53
2022/08/24 00:59:04;;;;;;;24.15;22.23;;;18.00;99.90;;;;;;4980824;28;20054;-54
2022/08/24 01:01:32;;;;;;;28.50;25.88;;;18.00;99.90;;;;;;4980051;28;20736;-54
2022/08/24 01:03:59;;;;;;;28.10;25.70;;;18.00;99.90;;;;;;4964054;28;20066;-51
2022/08/24 01:06:25;;;;;;;28.25;25.77;;;18.00;99.90;;;;;;4979120;28;20058;-53
2022/08/24 01:08:51;;;;;;;31.63;28.92;;;17.90;99.90;;;;;;4980202;28;20061;-51
2022/08/24 01:11:23;;;;;;;28.42;25.85;;;17.90;99.90;;;;;;4979992;28;20433;-54
2022/08/24 01:13:51;;;;;;;28.70;26.20;;;18.00;99.90;;;;;;4964164;28;20067;-53
2022/08/24 01:18:48;;;;;;;26.33;24.00;;;18.00;99.90;;;;;;4979641;28;20050;-54
2022/08/24 01:19:18;;;;;;;23.65;21.63;;;18.00;99.90;;;;;;4980299;28;20065;-53
2022/08/24 01:22:07;;;;;;;21.40;19.67;;;17.90;99.90;;;;;;4980083;28;20061;-53
2022/08/24 01:24:35;;;;;;;19.38;17.67;;;17.90;99.90;;;;;;4977664;28;21029;-53
2022/08/24 01:27:01;;;;;;;22.65;20.48;;;17.90;99.90;;;;;;5021903;28;20053;-52
2022/08/24 01:29:30;;;;;;;23.58;21.42;;;17.90;99.90;;;;;;5022480;28;20144;-50
2022/08/24 01:31:57;;;;;;;27.00;24.60;;;17.90;99.90;;;;;;5021807;28;20156;-54
2022/08/24 01:34:23;;;;;;;30.70;27.98;;;17.90;99.90;;;;;;5019829;28;20859;-52
2022/08/24 01:36:54;;;;;;;27.58;25.08;;;17.90;99.90;;;;;;5021683;28;20058;-53
2022/08/24 01:39:34;;;;;;;28.17;25.92;;;17.80;99.90;;;;;;5020353;28;20504;-52
2022/08/24 01:42:06;;;;;;;26.95;24.55;;;17.80;99.90;;;;;;5021757;28;20053;-54
2022/08/24 01:44:35;;;;;;;28.08;25.55;;;17.80;99.90;;;;;;5020891;28;20054;-56
2022/08/24 01:47:03;;;;;;;24.92;22.55;;;17.80;99.90;;;;;;5021256;28;20494;-50
2022/08/24 01:49:31;;;;;;;20.52;18.80;;;17.80;99.90;;;;;;5022069;28;20124;-53
2022/08/24 01:51:57;;;;;;;18.55;17.02;;;17.70;99.90;;;;;;5023470;28;20442;-48
2022/08/24 01:54:24;;;;;;;17.20;15.70;;;17.70;99.90;;;;;;5020933;28;20131;-53
2022/08/24 01:56:50;;;;;;;16.48;15.00;;;17.60;99.90;;;;;;5023408;28;20049;-54
2022/08/24 01:59:18;;;;;;;23.08;21.15;;;17.60;99.90;;;;;;5026238;28;20052;-51
2022/08/24 02:01:52;;;;;;;30.08;27.15;;;17.60;99.90;;;;;;5025604;28;20742;-54
2022/08/24 02:04:19;;;;;;;28.63;25.85;;;17.60;99.90;;;;;;5023441;28;20138;-52
2022/08/24 02:06:45;;;;;;;32.50;29.60;;;17.60;99.90;;;;;;5028327;28;20127;-51
2022/08/24 02:09:11;;;;;;;26.83;24.42;;;17.60;99.90;;;;;;5045437;28;20056;-53
2022/08/24 02:11:39;;;;;;;28.13;25.63;;;17.60;99.90;;;;;;5046289;28;20090;-52
2022/08/24 02:14:05;;;;;;;29.85;27.15;;;17.70;99.90;;;;;;5027618;28;20064;-53
2022/08/24 02:16:37;;;;;;;32.78;29.88;;;17.70;99.90;;;;;;5045060;28;20048;-52
2022/08/24 02:19:03;;;;;;;33.90;30.95;;;17.60;99.90;;;;;;5044208;28;20393;-51
2022/08/24 02:21:29;;;;;;;34.10;31.10;;;17.70;99.90;;;;;;5045756;28;20114;-52
2022/08/24 02:23:55;;;;;;;34.13;31.25;;;17.60;99.90;;;;;;5045261;28;20103;-53
2022/08/24 02:26:20;;;;;;;37.97;34.05;;;17.60;99.90;;;;;;5026351;28;20049;-51
2022/08/24 02:28:46;;;;;;;35.05;31.88;;;17.60;99.90;;;;;;5045585;28;20132;-51
2022/08/24 02:31:14;;;;;;;36.95;33.63;;;17.60;99.90;;;;;;5045266;28;20041;-50
2022/08/24 02:33:41;;;;;;;38.33;34.78;;;17.60;99.90;;;;;;5045355;28;20423;-53
2022/08/24 02:36:09;;;;;;;37.90;34.50;;;17.70;99.90;;;;;;5044674;28;20138;-51
2022/08/24 02:38:35;;;;;;;32.72;29.75;;;17.70;99.90;;;;;;5026702;28;20139;-52
2022/08/24 02:41:00;;;;;;;33.50;30.08;;;17.60;99.90;;;;;;5026757;28;20812;-54
2022/08/24 02:43:26;;;;;;;34.20;30.80;;;17.50;99.90;;;;;;5045571;28;20041;-53
2022/08/24 02:45:52;;;;;;;33.65;30.48;;;17.50;99.90;;;;;;5045071;28;20059;-51
2022/08/24 02:48:19;;;;;;;34.25;31.13;;;17.40;99.90;;;;;;5044841;28;20476;-50
2022/08/24 02:50:47;;;;;;;40.38;36.90;;;17.40;99.90;;;;;;5044644;28;20814;-53
2022/08/24 02:53:16;;;;;;;40.60;36.67;;;17.40;99.90;;;;;;5045050;28;20060;-52
2022/08/24 02:55:43;;;;;;;35.92;32.58;;;17.40;99.90;;;;;;5025910;28;20076;-52
2022/08/24 02:58:11;;;;;;;37.28;33.67;;;17.40;99.90;;;;;;5044166;28;20049;-53
2022/08/24 03:00:39;;;;;;;38.28;34.63;;;17.40;99.90;;;;;;5026823;28;20131;-52
2022/08/24 03:03:07;;;;;;;44.30;39.75;;;17.30;99.90;;;;;;5026771;28;20136;-52
2022/08/24 03:05:34;;;;;;;48.38;43.65;;;17.30;99.90;;;;;;5045214;28;20049;-55
2022/08/24 03:08:00;;;;;;;45.90;41.67;;;17.30;99.90;;;;;;5043615;28;21040;-52
2022/08/24 03:10:26;;;;;;;42.92;38.63;;;17.20;99.90;;;;;;5025848;28;20055;-55
2022/08/24 03:12:53;;;;;;;39.42;35.72;;;17.20;99.90;;;;;;5039808;28;20044;-54
2022/08/24 03:15:23;;;;;;;39.50;35.85;;;17.20;99.90;;;;;;5044285;28;20059;-52
2022/08/24 03:17:49;;;;;;;39.03;35.38;;;17.30;99.90;;;;;;5044388;28;20067;-50
2022/08/24 03:20:19;;;;;;;39.03;35.55;;;17.30;99.90;;;;;;5043578;28;20057;-48
2022/08/24 03:22:45;;;;;;;40.83;36.97;;;17.40;99.90;;;;;;5025237;28;20061;-52
2022/08/24 03:25:12;;;;;;;39.88;36.25;;;17.30;99.90;;;;;;5044357;28;20084;-50
2022/08/24 03:27:39;;;;;;;40.05;36.35;;;17.30;99.90;;;;;;5025934;28;20088;-52
2022/08/24 03:30:07;;;;;;;37.90;34.40;;;17.30;99.90;;;;;;5043280;28;20045;-51
2022/08/24 03:32:33;;;;;;;38.65;35.22;;;17.40;99.90;;;;;;5043284;28;20703;-51
2022/08/24 03:34:58;;;;;;;36.35;33.00;;;17.30;99.90;;;;;;5043583;28;20045;-49
2022/08/24 03:37:24;;;;;;;39.08;35.15;;;17.30;99.90;;;;;;5043967;28;20053;-51
2022/08/24 03:39:50;;;;;;;37.97;34.30;;;17.30;99.90;;;;;;5043474;28;20547;-51
2022/08/24 03:42:17;;;;;;;37.20;33.70;;;17.20;99.90;;;;;;5044146;28;20056;-53
2022/08/24 03:44:43;;;;;;;36.88;33.47;;;17.20;99.90;;;;;;5043813;28;20052;-50
2022/08/24 03:47:09;;;;;;;33.22;30.13;;;17.20;99.90;;;;;;5044426;28;20114;-51
2022/08/24 03:49:36;;;;;;;31.05;28.38;;;17.10;99.90;;;;;;5025185;28;20087;-51
2022/08/24 03:52:04;;;;;;;29.45;26.75;;;17.10;99.90;;;;;;5043018;28;20117;-53
2022/08/24 03:54:30;;;;;;;31.10;28.30;;;17.10;99.90;;;;;;5043817;28;20048;-52
2022/08/24 03:56:57;;;;;;;33.78;30.70;;;17.10;99.90;;;;;;5044348;28;20047;-51
2022/08/24 03:59:23;;;;;;;29.08;26.48;;;17.00;99.90;;;;;;5044037;28;20056;-52
2022/08/24 04:01:50;;;;;;;28.08;25.30;;;16.90;99.90;;;;;;5024837;28;20057;-51
2022/08/24 04:04:16;;;;;;;28.73;26.02;;;16.90;99.90;;;;;;5025503;28;20057;-50
2022/08/24 04:06:43;;;;;;;34.80;31.80;;;16.90;99.90;;;;;;5043500;28;20061;-49
2022/08/24 04:09:10;;;;;;;30.98;28.10;;;16.90;99.90;;;;;;5042409;28;20053;-52
2022/08/24 04:11:36;;;;;;;29.85;27.10;;;16.90;99.90;;;;;;5043452;28;20080;-51
2022/08/24 04:14:02;;;;;;;32.17;29.23;;;16.80;99.90;;;;;;5025288;28;20053;-53
2022/08/24 04:16:29;;;;;;;34.58;31.45;;;16.80;99.90;;;;;;5026095;28;20483;-53
2022/08/24 04:18:58;;;;;;;32.20;29.30;;;16.80;99.90;;;;;;5043272;28;20154;-52
2022/08/24 04:21:31;;;;;;;33.22;30.10;;;16.80;99.90;;;;;;5043323;28;20045;-50
2022/08/24 04:23:58;;;;;;;29.65;26.83;;;16.80;99.90;;;;;;5042969;28;20059;-54
2022/08/24 04:26:27;;;;;;;33.25;29.98;;;16.80;99.90;;;;;;5042545;28;20045;-52
2022/08/24 04:28:54;;;;;;;33.03;30.08;;;16.80;99.90;;;;;;5043623;28;20079;-51
2022/08/24 04:31:20;;;;;;;35.72;32.45;;;16.80;99.90;;;;;;5043579;28;20846;-52
2022/08/24 04:33:48;;;;;;;38.72;34.92;;;16.80;99.90;;;;;;5043128;28;20171;-53
2022/08/24 04:36:16;;;;;;;35.33;31.90;;;16.80;99.90;;;;;;5043134;28;20115;-50
2022/08/24 04:38:49;;;;;;;33.03;29.95;;;16.80;99.90;;;;;;5043005;28;20053;-49
2022/08/24 04:41:20;;;;;;;34.92;31.73;;;16.70;99.90;;;;;;5042538;28;20041;-50
2022/08/24 04:43:48;;;;;;;34.25;31.25;;;16.70;99.90;;;;;;5041448;28;20072;-48
2022/08/24 04:46:15;;;;;;;31.40;28.50;;;16.70;99.90;;;;;;5042257;28;20056;-54
2022/08/24 04:48:44;;;;;;;30.17;27.50;;;16.80;99.90;;;;;;5042968;28;20063;-50
2022/08/24 04:51:11;;;;;;;23.80;21.80;;;16.70;99.90;;;;;;5042476;28;20775;-48
2022/08/24 04:53:37;;;;;;;22.25;20.27;;;16.80;99.90;;;;;;5043044;28;20041;-50
2022/08/24 04:56:08;;;;;;;22.75;20.55;;;16.70;99.90;;;;;;5023838;28;20561;-51
2022/08/24 04:58:38;;;;;;;24.55;22.40;;;16.70;99.90;;;;;;5043341;28;20120;-52
2022/08/24 05:01:08;;;;;;;24.38;22.17;;;16.70;99.90;;;;;;5042238;28;20053;-50
2022/08/24 05:03:35;;;;;;;22.30;20.40;;;16.80;99.90;;;;;;5042875;28;20041;-53
2022/08/24 05:06:01;;;;;;;22.25;20.25;;;16.80;99.90;;;;;;5042791;28;20130;-52
2022/08/24 05:08:27;;;;;;;22.00;20.10;;;16.80;99.90;;;;;;5042748;28;20057;-52
2022/08/24 05:10:53;;;;;;;21.00;19.30;;;16.80;99.90;;;;;;5043276;28;20092;-52
2022/08/24 05:13:19;;;;;;;21.45;19.77;;;16.80;99.90;;;;;;5043132;28;20121;-51
2022/08/24 05:15:47;;;;;;;22.73;20.92;;;16.90;99.90;;;;;;5023731;28;20092;-51
2022/08/24 05:18:15;;;;;;;24.88;22.88;;;17.00;99.90;;;;;;5042841;28;20312;-50
2022/08/24 05:20:45;;;;;;;23.27;21.45;;;17.00;99.90;;;;;;5040797;28;20045;-51
2022/08/24 05:23:12;;;;;;;27.20;25.00;;;17.10;99.90;;;;;;5042449;28;20131;-49
2022/08/24 05:25:41;;;;;;;27.83;25.63;;;17.50;99.90;;;;;;5042409;28;20049;-52
2022/08/24 05:28:07;;;;;;;26.20;23.90;;;18.50;99.90;;;;;;5007795;28;20059;-52
2022/08/24 05:30:35;;;;;;;26.83;24.63;;;19.40;99.90;;;;;;5042874;28;20044;-51
2022/08/24 05:33:01;;;;;;;29.25;26.95;;;20.20;99.90;;;;;;5045403;28;20525;-54
2022/08/24 05:35:26;;;;;;;34.72;31.75;;;20.80;99.90;;;;;;5044596;28;20131;-54
2022/08/24 05:37:54;;;;;;;35.33;32.33;;;21.30;99.90;;;;;;5043303;28;20518;-53
2022/08/24 05:40:20;;;;;;;35.88;32.78;;;21.90;99.90;;;;;;5028301;28;20823;-51
2022/08/24 05:42:47;;;;;;;34.85;31.95;;;22.60;99.90;;;;;;5046105;28;20503;-53
2022/08/24 05:45:13;;;;;;;33.92;31.02;;;23.20;99.90;;;;;;5046267;28;20053;-54
2022/08/24 05:47:39;;;;;;;34.10;30.98;;;23.70;99.90;;;;;;5046558;28;20052;-53
2022/08/24 05:50:06;;;;;;;34.78;31.80;;;24.20;99.90;;;;;;5045857;28;20068;-54
2022/08/24 05:52:34;;;;;;;32.30;29.75;;;24.70;99.90;;;;;;5040428;28;20055;-53
2022/08/24 05:55:00;;;;;;;33.10;30.50;;;25.20;99.90;;;;;;5028142;28;20045;-53
2022/08/24 05:57:31;;;;;;;34.47;31.52;;;25.70;99.90;;;;;;5045360;28;20098;-53
2022/08/24 05:59:59;;;;;;;32.85;30.08;;;26.10;99.90;;;;;;5040546;28;20057;-55
2022/08/24 06:02:25;;;;;;;36.42;33.25;;;26.40;99.90;;;;;;5046697;28;20107;-50
2022/08/24 06:04:51;;;;;;;34.97;32.08;;;26.70;99.90;;;;;;5045701;28;20651;-53
2022/08/24 06:07:17;;;;;;;37.25;34.17;;;27.00;99.90;;;;;;5045791;28;20056;-53
2022/08/24 06:09:43;;;;;;;37.13;34.13;;;27.30;99.90;;;;;;5045090;28;20131;-54
2022/08/24 06:12:10;;;;;;;40.78;37.42;;;27.80;99.90;;;;;;5028006;28;20491;-52
2022/08/24 06:14:37;;;;;;;39.03;35.63;;;28.10;99.90;;;;;;5043860;28;20048;-54
2022/08/24 06:17:07;;;;;;;36.60;33.58;;;28.60;99.90;;;;;;5027650;28;20543;-53
2022/08/24 06:19:35;;;;;;;38.28;35.17;;;29.10;99.90;;;;;;5045081;28;20052;-54
2022/08/24 06:22:01;;;;;;;36.38;33.45;;;29.30;99.90;;;;;;5044653;28;20052;-55
2022/08/24 06:27:22;;;;;;;36.05;32.97;;;29.70;99.30;;;;;;5044568;28;20088;-57
2022/08/24 06:29:55;;;;;;;33.63;30.80;;;30.10;98.60;;;;;;5044824;28;20491;-55
2022/08/24 06:32:21;;;;;;;34.40;31.52;;;30.40;97.60;;;;;;5044068;28;20488;-55
2022/08/24 06:34:47;;;;;;;34.65;31.63;;;30.40;97.70;;;;;;5045245;28;20048;-55
2022/08/24 06:37:13;;;;;;;31.98;29.42;;;30.40;97.50;;;;;;5045525;28;20053;-57
2022/08/24 06:39:39;;;;;;;31.25;28.83;;;30.60;97.40;;;;;;5044023;28;20699;-54
2022/08/24 06:42:05;;;;;;;31.92;29.35;;;30.60;97.10;;;;;;5045361;28;20052;-55
2022/08/24 06:44:32;;;;;;;30.33;27.55;;;30.60;97.00;;;;;;5045484;28;20049;-56
2022/08/24 06:46:58;;;;;;;30.20;27.55;;;30.60;96.90;;;;;;5045287;28;20156;-56
2022/08/24 06:49:25;;;;;;;27.88;25.67;;;30.70;97.40;;;;;;5023102;28;20068;-57
2022/08/24 06:51:51;;;;;;;28.40;26.10;;;30.70;96.80;;;;;;5023571;28;20093;-57
2022/08/24 06:54:19;;;;;;;29.15;26.83;;;30.90;96.70;;;;;;5044721;28;20484;-53
2022/08/24 06:56:45;;;;;;;26.88;24.77;;;31.10;96.40;;;;;;5026888;28;21589;-55
2022/08/24 06:59:11;;;;;;;27.23;24.83;;;31.30;96.00;;;;;;5044564;28;20118;-54
2022/08/24 07:01:37;;;;;;;26.45;24.25;;;31.30;95.90;;;;;;5045258;28;20084;-51
2022/08/24 07:04:03;;;;;;;25.65;23.35;;;31.60;96.00;;;;;;5027303;28;20109;-56
2022/08/24 07:06:29;;;;;;;25.27;22.98;;;32.00;95.80;;;;;;5026602;28;20067;-55
2022/08/24 07:08:55;;;;;;;23.38;21.38;;;31.40;95.30;;;;;;5043876;28;20048;-53
2022/08/24 07:11:21;;;;;;;24.73;22.52;;;31.00;95.90;;;;;;5044686;28;20090;-55
2022/08/24 07:13:49;;;;;;;24.45;22.10;;;30.60;96.20;;;;;;5044688;28;20059;-55
2022/08/24 07:16:18;;;;;;;24.73;22.42;;;30.10;97.00;;;;;;5044909;28;20124;-58
2022/08/24 07:18:46;;;;;;;24.95;22.70;;;29.70;97.50;;;;;;5033415;28;20405;-56
2022/08/24 07:21:12;;;;;;;23.63;21.63;;;29.30;97.90;;;;;;5026454;28;20071;-55
2022/08/24 07:23:38;;;;;;;22.25;20.05;;;29.00;98.10;;;;;;5044557;28;20353;-55
2022/08/24 07:26:09;;;;;;;22.33;20.25;;;28.80;98.10;;;;;;5044729;28;20067;-55
2022/08/24 07:28:37;;;;;;;21.92;20.08;;;28.70;97.90;;;;;;5044229;28;20053;-55
2022/08/24 07:31:04;;;;;;;22.05;20.05;;;28.60;98.60;;;;;;5044674;28;20046;-56
2022/08/24 07:33:31;;;;;;;18.45;16.60;;;28.50;98.80;;;;;;5044548;28;20127;-57
2022/08/24 07:35:56;;;;;;;19.05;17.25;;;28.40;98.80;;;;;;5043918;28;20052;-57
2022/08/24 07:38:22;;;;;;;19.80;18.00;;;28.40;98.80;;;;;;5044069;28;20424;-57
2022/08/24 07:40:48;;;;;;;18.77;17.13;;;28.40;98.70;;;;;;5044022;28;20127;-56
2022/08/24 07:43:14;;;;;;;20.00;18.08;;;28.20;98.50;;;;;;5043583;28;20041;-55
2022/08/24 07:45:48;;;;;;;19.75;17.73;;;28.20;98.80;;;;;;5025736;28;20053;-57
2022/08/24 07:48:14;;;;;;;19.50;17.52;;;28.10;99.20;;;;;;5044105;28;20071;-56
2022/08/24 07:50:40;;;;;;;17.88;16.15;;;28.20;99.50;;;;;;5043750;28;20049;-57
2022/08/24 07:53:06;;;;;;;17.90;16.20;;;28.10;99.50;;;;;;5042851;28;20053;-57
2022/08/24 07:55:32;;;;;;;19.40;17.48;;;28.30;98.90;;;;;;5037991;28;20101;-57
2022/08/24 07:57:59;;;;;;;17.15;15.68;;;28.10;99.30;;;;;;5043256;28;20056;-57
2022/08/24 08:00:25;;;;;;;16.42;14.90;;;28.10;99.20;;;;;;5042748;28;20049;-57
2022/08/24 08:02:50;;;;;;;17.55;15.77;;;28.10;99.70;;;;;;5041514;28;20106;-58
2022/08/24 08:05:21;;;;;;;16.30;14.88;;;28.10;99.60;;;;;;5038755;28;20041;-57
2022/08/24 08:07:48;;;;;;;16.10;14.38;;;28.10;99.10;;;;;;5042571;28;20045;-57
2022/08/24 08:10:14;;;;;;;15.70;14.15;;;28.00;99.90;;;;;;5043232;28;20081;-57
2022/08/24 08:12:41;;;;;;;17.45;14.02;;;28.00;99.50;;;;;;5043247;28;20498;-58
2022/08/24 08:15:08;;;;;;;15.52;14.10;;;28.00;99.90;;;;;;5042526;28;20053;-57
2022/08/24 08:17:36;;;;;;;15.88;14.50;;;28.00;99.80;;;;;;5042863;28;20044;-57
2022/08/24 08:20:05;;;;;;;13.98;12.68;;;28.00;99.90;;;;;;5041655;28;20049;-58
2022/08/24 08:25:16;;;;;;;13.60;12.30;;;28.10;99.70;;;;;;5042243;28;20048;-58
2022/08/24 08:27:42;;;;;;;14.30;12.82;;;28.10;99.80;;;;;;5043283;28;20080;-58
2022/08/24 08:30:08;;;;;;;17.00;12.38;;;28.30;99.70;;;;;;5042466;28;20296;-58
2022/08/24 08:32:34;;;;;;;12.05;10.75;;;28.20;99.90;;;;;;5042788;28;20179;-58
2022/08/24 08:35:00;;;;;;;10.45;9.35;;;28.30;99.20;;;;;;5041817;28;20443;-58
2022/08/24 08:37:26;;;;;;;12.52;11.25;;;28.40;99.50;;;;;;5041375;28;20107;-58
2022/08/24 08:39:53;;;;;;;9.90;8.60;;;28.40;99.20;;;;;;5023809;28;20454;-58
2022/08/24 08:42:55;;;;;;;9.95;8.48;;;28.40;99.30;;;;;;5042454;28;20045;-57
2022/08/24 08:45:39;;;;;;;9.10;7.82;;;28.60;99.10;;;;;;5041324;28;20494;-59
2022/08/24 08:48:40;;;;;;;8.93;8.00;;;28.50;99.20;;;;;;5042284;28;20049;-60
2022/08/24 08:51:35;;;;;;;10.50;9.30;;;28.70;99.20;;;;;;5041687;28;20053;-58
2022/08/24 08:54:21;;;;;;;10.25;9.30;;;28.60;98.70;;;;;;5023439;28;20045;-58
2022/08/24 08:57:06;;;;;;;10.02;8.68;;;28.80;98.70;;;;;;5041120;28;20853;-58
2022/08/24 09:00:09;;;;;;;10.80;9.38;;;28.70;98.70;;;;;;5021333;28;20055;-57
2022/08/24 09:02:52;;;;;;;11.05;10.02;;;28.80;99.30;;;;;;5042341;28;20132;-58
2022/08/24 09:05:36;;;;;;;;;;;28.90;99.10;;;;;;5043374;28;20040;-58
2022/08/24 09:08:04;;;;;;;12.38;10.80;;;28.90;98.90;;;;;;5045317;28;20451;-58
2022/08/24 09:11:02;;;;;;;12.20;9.63;;;28.80;98.60;;;;;;5046772;28;20519;-58
2022/08/24 09:13:57;;;;;;;10.80;9.45;;;28.90;99.10;;;;;;5042089;28;20095;-58
2022/08/24 09:17:03;;;;;;;13.35;9.13;;;28.80;98.90;;;;;;5015846;28;20052;-58
2022/08/24 09:19:38;;;;;;;13.07;8.77;;;28.90;98.80;;;;;;5031152;28;20492;-58
2022/08/24 09:22:10;;;;;;;11.20;10.10;;;28.90;98.60;;;;;;5009137;28;20056;-58
2022/08/24 09:24:52;;;;;;;8.00;7.28;;;28.90;98.40;;;;;;5030684;28;20034;-58
2022/08/24 09:27:24;;;;;;;14.32;8.52;;;28.90;98.60;;;;;;5013035;28;20053;-59
2022/08/24 09:30:10;;;;;;;8.35;6.90;;;28.80;98.60;;;;;;5016578;28;20099;-58
2022/08/24 09:32:43;;;;;;;6.82;6.03;;;28.80;99.50;;;;;;5007824;28;20053;-57
2022/08/24 09:35:30;;;;;;;6.68;5.65;;;28.90;98.70;;;;;;5028617;28;20514;-58
2022/08/24 09:38:49;;;;;;;10.45;6.70;;;29.10;98.60;;;;;;4997544;28;20050;-58
2022/08/24 09:41:33;;;;;;;15.57;7.15;;;29.30;98.80;;;;;;5002038;28;20095;-59
2022/08/24 09:44:46;;;;;;;6.35;5.72;;;29.30;98.70;;;;;;5005349;28;20056;-58
2022/08/24 09:47:40;;;;;;;4.82;4.35;;;29.20;97.90;;;;;;4998652;28;20489;-59
2022/08/24 09:50:43;;;;;;;8.52;6.55;;;29.20;98.90;;;;;;4996464;28;20050;-58
2022/08/24 09:53:31;;;;;;;6.38;4.75;;;29.20;98.80;;;;;;4996905;28;20053;-58
2022/08/24 09:56:18;;;;;;;7.40;5.22;;;29.30;98.20;;;;;;4996915;28;20049;-58
2022/08/24 09:58:53;;;;;;;6.38;4.70;;;29.30;98.90;;;;;;5006170;28;20053;-58
2022/08/24 10:01:27;;;;;;;7.32;4.20;;;29.40;99.00;;;;;;5004384;28;20046;-58
2022/08/24 10:04:16;;;;;;;9.40;5.32;;;29.60;98.90;;;;;;5001335;28;20053;-58
2022/08/24 10:07:21;;;;;;;6.90;4.30;;;29.60;98.30;;;;;;5002123;28;20050;-59
2022/08/24 10:10:05;;;;;;;6.95;4.75;;;29.70;98.10;;;;;;4998047;28;20477;-59
2022/08/24 10:12:56;;;;;;;7.30;4.38;;;29.60;98.20;;;;;;5006291;28;20045;-58
2022/08/24 10:15:37;;;;;;;7.43;5.90;;;29.50;98.00;;;;;;5005982;28;20141;-59
2022/08/24 10:18:59;;;;;;;5.75;5.18;;;29.30;98.20;;;;;;5005776;28;20508;-59
2022/08/24 10:21:25;;;;;;;6.32;5.72;;;29.50;98.50;;;;;;4930502;28;20057;-60
2022/08/24 10:24:24;;;;;;;9.40;5.32;;;29.50;97.60;;;;;;4964153;28;20178;-59
2022/08/24 10:27:27;;;;;;;6.90;5.75;;;29.50;98.60;;;;;;4963819;28;20125;-59
2022/08/24 10:30:10;;;;;;;5.13;4.10;;;29.50;97.80;;;;;;4887169;29;20077;-58
2022/08/24 10:32:42;;;;;;;6.93;4.18;;;29.60;98.10;;;;;;4886180;29;20135;-59
2022/08/24 10:35:34;;;;;;;7.50;4.70;;;29.60;98.20;;;;;;4888252;29;20722;-58
2022/08/24 10:41:06;;;;;;;6.35;5.10;;;29.70;98.40;;;;;;4887002;29;20223;-58
2022/08/24 10:43:47;;;;;;;6.75;4.57;;;29.70;98.00;;;;;;4886060;29;20204;-59
2022/08/24 10:46:38;;;;;;;6.53;5.30;;;29.80;98.00;;;;;;4884393;29;20056;-59
2022/08/24 10:49:16;;;;;;;8.05;5.45;;;29.80;97.00;;;;;;4869288;29;20173;-58
2022/08/24 10:51:54;;;;;;;6.63;4.20;;;29.70;96.90;;;;;;4885643;29;20121;-58
2022/08/24 10:54:23;;;;;;;4.38;3.50;;;29.80;97.50;;;;;;4866883;29;20064;-58
2022/08/24 10:57:20;;;;;;;4.13;2.63;;;29.80;97.70;;;;;;4892253;29;20090;-58
2022/08/24 11:00:14;;;;;;;6.22;2.83;;;29.80;97.20;;;;;;4917360;29;20531;-59
2022/08/24 11:02:45;;;;;;;6.35;3.40;;;30.00;98.00;;;;;;4922383;29;20098;-58
2022/08/24 11:05:29;;;;;;;4.28;3.42;;;30.10;97.70;;;;;;4921476;29;20056;-58
2022/08/24 11:07:59;;;;;;;7.10;4.03;;;30.20;97.00;;;;;;5002838;28;20054;-58
2022/08/24 11:10:31;;;;;;;4.22;3.25;;;30.20;97.30;;;;;;4986408;28;20132;-58
2022/08/24 11:13:14;;;;;;;6.70;3.30;;;30.10;97.20;;;;;;5004884;28;20050;-58
2022/08/24 11:15:56;;;;;;;3.85;2.83;;;30.00;97.40;;;;;;5004580;28;20055;-59
2022/08/24 11:18:22;;;;;;;5.78;3.60;;;30.00;96.60;;;;;;5003047;28;20511;-59
2022/08/24 11:20:51;;;;;;;5.40;2.95;;;30.10;97.70;;;;;;5001991;28;20420;-59
2022/08/24 11:23:36;;;;;;;4.57;3.13;;;30.20;97.70;;;;;;5000665;28;20085;-57
2022/08/24 11:26:10;;;;;;;4.72;2.60;;;30.30;96.90;;;;;;4997494;28;20455;-58
2022/08/24 11:28:59;;;;;;;4.95;3.05;;;30.30;97.60;;;;;;5003152;28;20108;-58
2022/08/24 11:31:31;;;;;;;5.55;3.85;;;30.30;97.20;;;;;;4994222;28;20046;-59
2022/08/24 11:34:02;;;;;;;5.28;3.33;;;30.20;97.00;;;;;;5002430;28;20463;-59
2022/08/24 11:36:32;;;;;;;5.78;2.80;;;30.10;97.20;;;;;;5019439;28;20044;-59
2022/08/24 11:39:22;;;;;;;4.55;2.50;;;30.20;96.90;;;;;;5041064;28;20053;-58
2022/08/24 11:42:17;;;;;;;3.15;2.33;;;30.20;96.60;;;;;;5039800;28;20199;-60
2022/08/24 11:44:52;;;;;;;5.72;2.65;;;30.30;97.20;;;;;;5042861;28;20049;-59
2022/08/24 11:47:38;;;;;;;5.63;2.92;;;30.50;96.80;;;;;;5024667;28;20048;-59
2022/08/24 11:50:21;;;;;;;8.63;2.97;;;30.60;97.20;;;;;;5041789;28;20132;-58
2022/08/24 11:53:12;;;;;;;5.22;2.90;;;30.70;96.40;;;;;;5022483;28;20103;-59
2022/08/24 11:56:01;;;;;;;3.40;2.42;;;30.70;96.20;;;;;;5040966;28;20091;-59
2022/08/24 11:58:52;;;;;;;4.47;2.30;;;30.40;96.20;;;;;;5043148;28;20044;-59
2022/08/24 12:01:27;;;;;;;3.33;2.15;;;30.20;96.40;;;;;;5041615;28;20048;-59
2022/08/24 12:04:15;;;;;;;4.93;2.67;;;30.10;96.20;;;;;;5038597;28;20076;-62
2022/08/24 12:07:08;;;;;;;6.93;2.45;;;30.00;96.60;;;;;;5021439;28;20083;-59
2022/08/24 12:09:46;;;;;;;5.15;2.05;;;29.90;96.20;;;;;;5040439;28;20090;-59
2022/08/24 12:12:17;;;;;;;4.95;2.63;;;29.90;96.90;;;;;;5041655;28;20492;-58
2022/08/24 12:14:59;;;;;;;7.32;3.03;;;29.90;97.10;;;;;;5040389;28;20041;-58
2022/08/24 12:17:31;;;;;;;4.37;3.03;;;29.90;97.90;;;;;;5022728;28;20049;-59
2022/08/24 12:20:37;;;;;;;2.97;2.30;;;29.90;97.70;;;;;;5033126;28;20478;-58
2022/08/24 12:23:26;;;;;;;4.40;1.95;;;29.90;97.00;;;;;;4979531;28;20062;-58
2022/08/24 12:26:00;;;;;;;4.70;2.47;;;29.90;96.80;;;;;;4979095;28;20076;-59
2022/08/24 12:28:36;;;;;;;3.55;2.28;;;29.90;96.30;;;;;;4979981;28;20144;-58
2022/08/24 12:31:18;;;;;;;2.30;1.75;;;29.80;96.20;;;;;;4978976;28;20062;-58
2022/08/24 12:33:50;;;;;;;5.15;1.60;;;29.70;96.30;;;;;;4961171;28;20557;-59
2022/08/24 12:36:31;;;;;;;2.97;1.90;;;29.60;97.00;;;;;;4978291;28;20480;-58
2022/08/24 12:39:13;;;;;;;2.30;1.70;;;29.50;96.80;;;;;;4978285;28;20458;-59
2022/08/24 12:41:55;;;;;;;3.05;2.10;;;29.40;97.70;;;;;;4975337;28;20266;-58
2022/08/24 12:44:27;;;;;;;7.22;2.20;;;29.30;98.40;;;;;;4962478;28;20469;-57
2022/08/24 12:46:53;;;;;;;3.42;1.88;;;29.30;98.20;;;;;;4962567;28;20070;-59
2022/08/24 12:49:39;;;;;;;4.85;1.80;;;29.10;98.00;;;;;;4979638;28;20053;-58
2022/08/24 12:52:23;;;;;;;4.93;2.30;;;29.00;98.30;;;;;;4977887;28;20058;-59
2022/08/24 12:54:51;;;;;;;2.90;1.90;;;29.00;98.00;;;;;;4978494;28;20449;-58
2022/08/24 12:57:44;;;;;;;5.10;2.05;;;29.20;97.50;;;;;;4962875;28;20138;-59
2022/08/24 13:00:27;;;;;;;;;;;29.40;97.10;;;;;;5024296;28;20403;-57
2022/08/24 13:03:08;;;;;;;8.57;2.50;;;29.60;97.60;;;;;;5035591;28;20015;-58
2022/08/24 13:05:44;;;;;;;6.07;2.10;;;29.60;97.60;;;;;;5034220;28;20099;-59
2022/08/24 13:08:39;;;;;;;5.20;2.15;;;29.70;97.70;;;;;;5040642;28;20109;-58
2022/08/24 13:11:37;;;;;;;3.88;1.95;;;30.10;97.40;;;;;;5041774;28;20055;-62